createdAt,value
2022-12-08T00:00:29.944Z,82.51
2022-12-08T00:06:08.695Z,82.31
2022-12-08T00:11:14.603Z,82.21
2022-12-08T00:16:18.325Z,82.11
2022-12-08T00:21:22.315Z,82.35
2022-12-08T00:26:26.090Z,82.39
2022-12-08T00:31:29.806Z,82.29
2022-12-08T00:36:34.202Z,82.38
2022-12-08T00:41:56.455Z,82.17
2022-12-08T00:47:00.484Z,81.98
2022-12-08T00:52:04.332Z,81.61
2022-12-08T00:57:08.344Z,81.35
2022-12-08T01:02:12.064Z,81.43
2022-12-08T01:07:15.785Z,81.13
2022-12-08T01:12:19.403Z,80.78
2022-12-08T01:17:23.024Z,80.78
2022-12-08T01:22:26.640Z,80.76
2022-12-08T01:27:30.445Z,80.90
2022-12-08T01:32:34.087Z,80.66
2022-12-08T01:37:37.752Z,80.37
2022-12-08T01:42:41.945Z,80.40
2022-12-08T01:47:51.807Z,80.33
2022-12-08T01:53:04.479Z,80.44
2022-12-08T01:58:23.446Z,80.44
2022-12-08T02:03:59.885Z,80.64
2022-12-08T02:09:05.898Z,80.82
2022-12-08T02:14:13.383Z,80.85
2022-12-08T02:19:31.051Z,80.96
2022-12-08T02:24:46.715Z,81.00
2022-12-08T02:30:08.194Z,81.07
2022-12-08T02:35:22.137Z,81.40
2022-12-08T02:40:40.225Z,81.66
2022-12-08T02:45:57.112Z,81.87
2022-12-08T02:51:01.078Z,82.13
2022-12-08T02:56:56.199Z,82.32
2022-12-08T03:02:48.503Z,82.50
2022-12-08T03:08:13.972Z,82.54
2022-12-08T03:13:29.898Z,82.74
2022-12-08T03:18:44.200Z,82.86
2022-12-08T03:23:54.480Z,83.03
2022-12-08T03:28:59.085Z,83.14
2022-12-08T03:34:04.969Z,83.21
2022-12-08T03:39:08.603Z,83.31
2022-12-08T03:44:12.419Z,83.47
2022-12-08T03:49:16.067Z,83.64
2022-12-08T03:54:19.957Z,83.69
2022-12-08T03:59:23.776Z,83.79
2022-12-08T04:04:27.605Z,83.83
2022-12-08T04:09:31.531Z,83.95
2022-12-08T04:14:35.386Z,84.05
2022-12-08T04:19:41.343Z,84.14
2022-12-08T04:24:44.953Z,84.11
2022-12-08T04:29:48.687Z,84.21
2022-12-08T04:34:52.396Z,84.29
2022-12-08T04:39:56.525Z,84.29
2022-12-08T04:45:00.349Z,84.25
2022-12-08T04:50:06.569Z,84.15
2022-12-08T04:55:10.488Z,84.24
2022-12-08T05:00:14.897Z,84.22
2022-12-08T05:05:18.527Z,84.08
2022-12-08T05:10:22.557Z,83.98
2022-12-08T05:15:26.545Z,83.96
2022-12-08T05:20:30.261Z,83.86
2022-12-08T05:25:34.021Z,83.97
2022-12-08T05:30:37.749Z,84.05
2022-12-08T05:35:41.592Z,84.16
2022-12-08T05:40:45.606Z,84.22
2022-12-08T05:45:50.280Z,84.21
2022-12-08T05:50:54.066Z,84.11
2022-12-08T05:55:58.204Z,84.02
2022-12-08T06:01:02.335Z,83.51
2022-12-08T06:06:06.775Z,83.18
2022-12-08T06:11:11.083Z,83.07
2022-12-08T06:16:14.811Z,83.10
2022-12-08T06:21:20.440Z,83.03
2022-12-08T06:26:24.324Z,82.96
2022-12-08T06:31:28.793Z,82.96
2022-12-08T06:36:33.540Z,82.59
2022-12-08T06:41:57.711Z,82.40
2022-12-08T06:47:01.946Z,82.10
2022-12-08T06:52:05.769Z,81.83
2022-12-08T06:57:09.389Z,81.56
2022-12-08T07:02:13.298Z,81.47
2022-12-08T07:07:16.946Z,81.07
2022-12-08T07:12:20.845Z,80.75
2022-12-08T07:17:25.407Z,80.46
2022-12-08T07:22:29.031Z,80.22
2022-12-08T07:27:32.852Z,79.78
2022-12-08T07:32:39.122Z,80.00
2022-12-08T07:37:43.572Z,79.85
2022-12-08T07:42:47.200Z,78.61
2022-12-08T07:47:51.131Z,78.39
2022-12-08T07:52:55.050Z,77.19
2022-12-08T07:57:58.981Z,77.16
2022-12-08T08:03:03.663Z,77.89
2022-12-08T08:08:07.551Z,78.39
2022-12-08T08:13:11.611Z,78.60
2022-12-08T08:18:15.696Z,78.15
2022-12-08T08:23:19.639Z,77.82
2022-12-08T08:28:23.367Z,77.40
2022-12-08T08:33:28.103Z,77.12
2022-12-08T08:38:32.340Z,76.39
2022-12-08T08:43:38.694Z,76.14
2022-12-08T08:48:42.993Z,75.19
2022-12-08T08:53:46.709Z,74.76
2022-12-08T08:58:53.000Z,74.85
2022-12-08T09:03:58.225Z,73.84
2022-12-08T09:09:02.272Z,73.07
2022-12-08T09:14:07.146Z,72.86
2022-12-08T09:19:11.086Z,73.50
2022-12-08T09:24:17.951Z,72.36
2022-12-08T09:29:22.063Z,68.51
2022-12-08T09:34:26.089Z,65.79
2022-12-08T09:39:30.114Z,62.47
2022-12-08T09:44:50.593Z,55.92
2022-12-08T09:50:36.645Z,54.28
2022-12-08T09:55:57.922Z,58.58
2022-12-08T10:01:01.720Z,63.26
2022-12-08T10:06:41.626Z,66.39
2022-12-08T10:12:09.573Z,68.14
2022-12-08T10:18:01.598Z,69.02
2022-12-08T10:23:14.073Z,69.94
2022-12-08T10:28:17.773Z,68.89
2022-12-08T10:33:24.034Z,66.21
2022-12-08T10:38:36.084Z,66.86
2022-12-08T10:43:50.559Z,68.05
2022-12-08T10:49:13.648Z,69.00
2022-12-08T10:54:39.787Z,70.21
2022-12-08T10:59:43.605Z,71.16
2022-12-08T11:04:48.251Z,72.39
2022-12-08T11:09:58.533Z,73.33
2022-12-08T11:15:05.678Z,74.18
2022-12-08T11:20:09.642Z,73.89
2022-12-08T11:25:29.237Z,73.61
2022-12-08T11:30:38.027Z,73.82
2022-12-08T11:35:46.177Z,74.14
2022-12-08T11:41:15.861Z,74.03
2022-12-08T11:46:40.856Z,73.67
2022-12-08T11:52:29.645Z,73.38
2022-12-08T11:57:33.808Z,73.23
2022-12-08T12:02:47.314Z,73.63
2022-12-08T12:08:25.300Z,73.10
2022-12-08T12:14:26.761Z,72.79
2022-12-08T12:19:39.506Z,73.18
2022-12-08T12:24:49.182Z,73.61
2022-12-08T12:30:05.031Z,74.13
2022-12-08T12:35:27.032Z,74.45
2022-12-08T12:40:42.575Z,75.07
2022-12-08T12:45:46.958Z,75.69
2022-12-08T12:50:52.901Z,76.46
2022-12-08T12:56:01.092Z,77.41
2022-12-08T13:01:11.009Z,78.41
2022-12-08T13:06:24.285Z,79.79
2022-12-08T13:11:28.162Z,81.96
2022-12-08T13:16:35.895Z,83.17
2022-12-08T13:21:41.016Z,84.42
2022-12-08T13:27:04.110Z,84.61
2022-12-08T13:32:07.942Z,84.82
2022-12-08T13:37:11.573Z,85.56
2022-12-08T13:42:27.990Z,85.98
2022-12-08T13:47:59.636Z,86.39
2022-12-08T13:53:49.529Z,86.60
2022-12-08T13:58:39.243Z,87.06
2022-12-08T14:09:29.412Z,87.14
2022-12-08T14:15:01.656Z,87.14
2022-12-08T14:20:30.573Z,87.39
2022-12-08T14:25:36.370Z,87.46
2022-12-08T14:30:40.892Z,87.43
2022-12-08T14:35:53.694Z,87.80
2022-12-08T14:41:08.266Z,87.84
2022-12-08T14:46:34.075Z,87.99
2022-12-08T14:51:41.302Z,88.15
2022-12-08T14:56:55.624Z,88.43
2022-12-08T15:02:24.830Z,88.46
2022-12-08T15:07:36.098Z,88.67
2022-12-08T15:12:39.736Z,88.76
2022-12-08T15:18:16.271Z,88.50
2022-12-08T15:23:25.011Z,88.44
2022-12-08T15:28:30.688Z,88.42
2022-12-08T15:33:36.872Z,88.33
2022-12-08T15:38:43.798Z,88.33
2022-12-08T15:43:48.138Z,88.35
2022-12-08T15:48:57.809Z,88.31
2022-12-08T15:54:04.277Z,88.32
2022-12-08T15:59:18.802Z,88.28
2022-12-08T16:09:47.428Z,88.44
2022-12-08T16:20:18.342Z,88.35
2022-12-08T16:25:23.394Z,88.18
2022-12-08T16:30:27.261Z,88.04
2022-12-08T16:35:31.689Z,87.96
2022-12-08T16:40:55.223Z,87.92
2022-12-08T16:45:59.650Z,88.03
2022-12-08T16:51:04.966Z,88.21
2022-12-08T16:56:08.690Z,88.30
2022-12-08T17:01:16.198Z,88.28
2022-12-08T17:06:21.456Z,88.24
2022-12-08T17:11:28.714Z,88.33
2022-12-08T17:16:32.392Z,88.36
2022-12-08T17:21:36.592Z,88.31
2022-12-08T17:26:40.748Z,88.26
2022-12-08T17:31:44.724Z,88.28
2022-12-08T17:36:48.406Z,88.22
2022-12-08T17:41:52.223Z,88.21
2022-12-08T17:46:56.150Z,88.19
2022-12-08T17:52:04.095Z,88.04
2022-12-08T17:57:07.800Z,87.87
2022-12-08T18:02:12.541Z,87.69
2022-12-08T18:07:16.263Z,87.57
2022-12-08T18:12:23.637Z,87.26
2022-12-08T18:17:27.917Z,87.07
2022-12-08T18:22:31.735Z,87.00
2022-12-08T18:27:42.749Z,86.81
2022-12-08T18:32:47.192Z,86.63
2022-12-08T18:37:51.959Z,86.44
2022-12-08T18:42:56.454Z,86.38
2022-12-08T18:48:01.008Z,86.19
2022-12-08T18:53:04.620Z,86.07
2022-12-08T18:58:11.546Z,85.82
2022-12-08T19:03:15.878Z,85.65
2022-12-08T19:08:22.549Z,85.61
2022-12-08T19:13:28.428Z,85.63
2022-12-08T19:18:32.211Z,85.61
2022-12-08T19:23:36.581Z,85.56
2022-12-08T19:28:41.951Z,85.44
2022-12-08T19:33:45.549Z,85.53
2022-12-08T19:39:08.444Z,85.68
2022-12-08T19:44:49.017Z,85.78
2022-12-08T19:50:18.058Z,85.79
2022-12-08T19:55:23.977Z,85.66
2022-12-08T20:00:32.799Z,85.49
2022-12-08T20:05:40.478Z,85.36
2022-12-08T20:10:46.050Z,85.29
2022-12-08T20:15:51.680Z,85.25
2022-12-08T20:20:57.300Z,85.23
2022-12-08T20:26:07.727Z,85.19
2022-12-08T20:31:27.024Z,85.02
2022-12-08T20:36:32.424Z,85.03
2022-12-08T20:41:39.286Z,85.26
2022-12-08T20:46:49.287Z,85.71
2022-12-08T20:51:53.716Z,85.92
2022-12-08T20:56:58.228Z,86.22
2022-12-08T21:02:03.087Z,86.53
2022-12-08T21:07:09.316Z,86.67
2022-12-08T21:12:13.899Z,86.70
2022-12-08T21:17:19.031Z,86.68
2022-12-08T21:22:22.994Z,86.91
2022-12-08T21:27:27.251Z,87.08
2022-12-08T21:32:31.142Z,87.50
2022-12-08T21:37:36.138Z,87.56
2022-12-08T21:42:46.540Z,87.68
2022-12-08T21:47:51.210Z,87.97
2022-12-08T21:52:55.606Z,88.12
2022-12-08T21:58:01.273Z,88.32
2022-12-08T22:03:07.152Z,88.25
2022-12-08T22:08:10.928Z,88.10
2022-12-08T22:13:15.150Z,87.83
2022-12-08T22:18:19.485Z,87.72
2022-12-08T22:23:23.546Z,87.60
2022-12-08T22:28:32.297Z,87.63
2022-12-08T22:33:36.112Z,87.60
2022-12-08T22:38:41.074Z,87.74
2022-12-08T22:43:46.853Z,87.65
2022-12-08T22:48:53.181Z,87.53
2022-12-08T22:53:57.041Z,87.39
2022-12-08T22:59:00.988Z,87.48
2022-12-08T23:04:05.783Z,87.24
2022-12-08T23:09:09.500Z,87.16
2022-12-08T23:14:13.567Z,87.24
2022-12-08T23:19:17.521Z,87.20
2022-12-08T23:24:21.722Z,87.08
2022-12-08T23:29:26.015Z,87.07
2022-12-08T23:34:29.699Z,87.14
2022-12-08T23:39:33.396Z,87.16
2022-12-08T23:44:37.654Z,87.14
2022-12-08T23:49:42.505Z,87.10
2022-12-08T23:54:46.999Z,87.01
2022-12-08T23:59:50.921Z,86.83
